createdAt,value
2017-04-13T00:00:10.917Z,0
2017-04-13T00:01:19.873Z,0
2017-04-13T00:02:28.832Z,0
2017-04-13T00:03:37.820Z,0
2017-04-13T00:04:47.099Z,0
2017-04-13T00:05:56.353Z,0
2017-04-13T00:07:05.628Z,0
2017-04-13T00:08:14.584Z,0
2017-04-13T00:09:23.538Z,0
2017-04-13T00:10:32.484Z,0
2017-04-13T00:11:41.689Z,0
2017-04-13T00:12:50.641Z,0
2017-04-13T00:13:59.596Z,0
2017-04-13T00:15:08.550Z,0
2017-04-13T00:16:17.494Z,0
2017-04-13T00:17:26.695Z,0
2017-04-13T00:18:35.647Z,0
2017-04-13T00:19:44.596Z,0
2017-04-13T00:20:53.548Z,0
2017-04-13T00:22:02.500Z,0
2017-04-13T00:23:11.785Z,0
2017-04-13T00:24:20.744Z,0
2017-04-13T00:25:29.700Z,0
2017-04-13T00:26:38.654Z,0
2017-04-13T00:27:47.611Z,0
2017-04-13T00:28:56.825Z,0
2017-04-13T00:30:05.783Z,0
2017-04-13T00:31:14.736Z,0
2017-04-13T00:32:23.692Z,0
2017-04-13T00:33:32.734Z,0
2017-04-13T00:34:41.940Z,0
2017-04-13T00:35:51.217Z,0
2017-04-13T00:37:00.256Z,0
2017-04-13T00:38:09.213Z,0
2017-04-13T00:39:18.255Z,0
2017-04-13T00:40:27.457Z,0
2017-04-13T00:41:36.406Z,0
2017-04-13T00:42:45.363Z,0
2017-04-13T00:43:54.317Z,0
2017-04-13T00:45:03.351Z,0
2017-04-13T00:46:12.557Z,0
2017-04-13T00:47:21.512Z,0
2017-04-13T00:48:30.466Z,0
2017-04-13T00:49:39.418Z,0
2017-04-13T00:50:48.371Z,0
2017-04-13T00:51:57.581Z,0
2017-04-13T00:53:06.544Z,0
2017-04-13T00:54:15.494Z,0
2017-04-13T00:55:24.454Z,0
2017-04-13T00:56:33.412Z,0
2017-04-13T00:57:42.954Z,0
2017-04-13T00:58:51.908Z,0
2017-04-13T01:00:00.906Z,0
2017-04-13T01:01:09.864Z,0
2017-04-13T01:02:18.812Z,0
2017-04-13T01:03:28.105Z,0
2017-04-13T01:04:37.062Z,0
2017-04-13T01:05:46.032Z,0
2017-04-13T01:06:55.306Z,0
2017-04-13T01:08:04.258Z,0
2017-04-13T01:09:13.458Z,0
2017-04-13T01:10:22.410Z,0
2017-04-13T01:11:31.360Z,0
2017-04-13T01:12:40.316Z,0
2017-04-13T01:13:49.262Z,0
2017-04-13T01:14:58.460Z,0
2017-04-13T01:16:07.419Z,0
2017-04-13T01:17:16.368Z,0
2017-04-13T01:18:25.320Z,0
2017-04-13T01:19:34.272Z,0
2017-04-13T01:20:43.535Z,0
2017-04-13T01:21:52.485Z,0
2017-04-13T01:23:01.440Z,0
2017-04-13T01:24:10.403Z,0
2017-04-13T01:25:19.687Z,0
2017-04-13T01:26:28.890Z,0
2017-04-13T01:27:38.020Z,0
2017-04-13T01:28:46.977Z,0
2017-04-13T01:29:55.929Z,0
2017-04-13T01:31:04.877Z,0
2017-04-13T01:32:14.168Z,0
2017-04-13T01:33:23.119Z,0
2017-04-13T01:34:32.080Z,0
2017-04-13T01:35:41.119Z,0
2017-04-13T01:36:50.070Z,0
2017-04-13T01:37:59.280Z,0
2017-04-13T01:39:08.417Z,0
2017-04-13T01:40:17.366Z,0
2017-04-13T01:41:26.314Z,0
2017-04-13T01:42:35.270Z,0
2017-04-13T01:43:44.523Z,0
2017-04-13T01:44:53.519Z,0
2017-04-13T01:46:02.566Z,0
2017-04-13T01:47:11.599Z,0
2017-04-13T01:48:20.560Z,0
2017-04-13T01:49:29.811Z,0
2017-04-13T01:50:38.765Z,0
2017-04-13T01:51:47.716Z,0
2017-04-13T01:52:56.669Z,0
2017-04-13T01:54:05.621Z,0
2017-04-13T01:55:14.824Z,0
2017-04-13T01:56:23.778Z,0
2017-04-13T01:57:32.785Z,0
2017-04-13T01:58:41.749Z,0
2017-04-13T01:59:50.703Z,0
2017-04-13T02:00:59.905Z,0
2017-04-13T02:02:08.854Z,0
2017-04-13T02:03:17.816Z,0
2017-04-13T02:04:26.775Z,0
2017-04-13T02:05:35.727Z,0
2017-04-13T02:06:44.930Z,0
2017-04-13T02:07:53.879Z,0
2017-04-13T02:09:02.824Z,0
2017-04-13T02:10:11.780Z,0
2017-04-13T02:11:20.772Z,0
2017-04-13T02:12:29.985Z,0
2017-04-13T02:13:38.948Z,0
2017-04-13T02:14:47.910Z,0
2017-04-13T02:15:56.870Z,0
2017-04-13T02:17:05.838Z,0
2017-04-13T02:18:15.040Z,0
2017-04-13T02:19:24.002Z,0
2017-04-13T02:20:32.953Z,0
2017-04-13T02:21:41.906Z,0
2017-04-13T02:22:50.940Z,0
2017-04-13T02:24:00.144Z,0
2017-04-13T02:25:09.188Z,0
2017-04-13T02:26:18.136Z,0
2017-04-13T02:27:27.091Z,0
2017-04-13T02:28:36.059Z,0
2017-04-13T02:29:45.584Z,0
2017-04-13T02:30:54.869Z,0
2017-04-13T02:32:03.819Z,0
2017-04-13T02:33:12.768Z,0
2017-04-13T02:34:21.721Z,0
2017-04-13T02:35:30.924Z,0
2017-04-13T02:36:40.198Z,0
2017-04-13T02:37:49.157Z,0
2017-04-13T02:38:58.106Z,0
2017-04-13T02:40:07.054Z,0
2017-04-13T02:41:16.258Z,0
2017-04-13T02:42:25.532Z,0
2017-04-13T02:43:34.491Z,0
2017-04-13T02:44:43.444Z,0
2017-04-13T02:45:52.397Z,0
2017-04-13T02:47:01.603Z,0
2017-04-13T02:48:10.553Z,0
2017-04-13T02:49:19.512Z,0
2017-04-13T02:50:28.462Z,0
2017-04-13T02:51:37.496Z,0
2017-04-13T02:52:46.699Z,0
2017-04-13T02:53:55.732Z,0
2017-04-13T02:55:04.680Z,0
2017-04-13T02:56:13.629Z,0
2017-04-13T02:57:22.688Z,0
2017-04-13T02:58:31.885Z,0
2017-04-13T02:59:40.840Z,0
2017-04-13T03:00:49.799Z,0
2017-04-13T03:01:58.841Z,0
2017-04-13T03:03:07.802Z,0
2017-04-13T03:04:17.007Z,0
2017-04-13T03:05:25.957Z,0
2017-04-13T03:06:34.954Z,0
2017-04-13T03:07:43.907Z,0
2017-04-13T03:08:52.861Z,0
2017-04-13T03:10:02.144Z,0
2017-04-13T03:11:11.092Z,0
2017-04-13T03:12:20.055Z,0
2017-04-13T03:13:29.007Z,0
2017-04-13T03:14:37.959Z,0
2017-04-13T03:15:47.245Z,0
2017-04-13T03:16:56.196Z,0
2017-04-13T03:18:05.145Z,0
2017-04-13T03:19:14.110Z,0
2017-04-13T03:20:23.061Z,0
2017-04-13T03:21:32.257Z,0
2017-04-13T03:22:41.208Z,0
2017-04-13T03:23:50.161Z,0
2017-04-13T03:24:59.163Z,0
2017-04-13T03:26:08.200Z,0
2017-04-13T03:27:17.401Z,0
2017-04-13T03:28:26.358Z,0
2017-04-13T03:29:35.309Z,0
2017-04-13T03:30:44.342Z,0
2017-04-13T03:31:53.306Z,0
2017-04-13T03:33:02.595Z,0
2017-04-13T03:34:11.545Z,0
2017-04-13T03:35:20.501Z,0
2017-04-13T03:36:29.451Z,0
2017-04-13T03:37:38.486Z,0
2017-04-13T03:38:47.685Z,0
2017-04-13T03:39:56.637Z,0
2017-04-13T03:41:05.587Z,0
2017-04-13T03:42:14.542Z,0
2017-04-13T03:43:23.492Z,0
2017-04-13T03:44:32.691Z,0
2017-04-13T03:45:41.640Z,0
2017-04-13T03:46:50.589Z,0
2017-04-13T03:47:59.554Z,0
2017-04-13T03:49:08.592Z,0
2017-04-13T03:50:17.798Z,0
2017-04-13T03:51:26.755Z,0
2017-04-13T03:52:35.711Z,0
2017-04-13T03:53:44.656Z,0
2017-04-13T03:54:53.606Z,0
2017-04-13T03:56:02.805Z,0
2017-04-13T03:57:11.761Z,0
2017-04-13T03:58:20.896Z,0
2017-04-13T03:59:29.852Z,0
2017-04-13T04:00:38.842Z,0
2017-04-13T04:01:48.046Z,0
2017-04-13T04:02:56.992Z,0
2017-04-13T04:04:05.939Z,0
2017-04-13T04:05:14.890Z,0
2017-04-13T04:06:23.836Z,0
2017-04-13T04:07:33.042Z,0
2017-04-13T04:08:41.991Z,0
2017-04-13T04:09:50.943Z,0
2017-04-13T04:10:59.897Z,0
2017-04-13T04:12:08.846Z,0
2017-04-13T04:13:18.092Z,0
2017-04-13T04:14:27.047Z,0
2017-04-13T04:15:36.003Z,0
2017-04-13T04:16:45.368Z,0
2017-04-13T04:17:54.397Z,5
2017-04-13T04:19:03.656Z,5
2017-04-13T04:20:12.660Z,5
2017-04-13T04:21:21.694Z,5
2017-04-13T04:22:30.655Z,5
2017-04-13T04:23:39.604Z,5
2017-04-13T04:24:48.804Z,5
2017-04-13T04:25:57.842Z,5
2017-04-13T04:27:06.882Z,5
2017-04-13T04:28:16.153Z,5
2017-04-13T04:29:25.102Z,5
2017-04-13T04:30:34.360Z,5
2017-04-13T04:31:43.309Z,5
2017-04-13T04:32:52.260Z,5
2017-04-13T04:34:01.218Z,10
2017-04-13T04:35:10.169Z,10
2017-04-13T04:36:19.365Z,10
2017-04-13T04:37:28.317Z,10
2017-04-13T04:38:37.266Z,10
2017-04-13T04:39:46.626Z,10
2017-04-13T04:40:55.661Z,15
2017-04-13T04:42:04.865Z,15
2017-04-13T04:43:13.821Z,20
2017-04-13T04:44:22.776Z,20
2017-04-13T04:45:31.725Z,20
2017-04-13T04:46:40.763Z,20
2017-04-13T04:47:50.708Z,20
2017-04-13T04:48:59.663Z,25
2017-04-13T04:50:08.613Z,25
2017-04-13T04:51:17.563Z,25
2017-04-13T04:52:26.516Z,25
2017-04-13T04:53:35.762Z,20
2017-04-13T04:54:45.038Z,20
2017-04-13T04:55:53.999Z,20
2017-04-13T04:57:02.946Z,25
2017-04-13T04:58:11.894Z,25
2017-04-13T04:59:21.103Z,25
2017-04-13T05:00:30.061Z,25
2017-04-13T05:01:39.011Z,25
2017-04-13T05:02:48.051Z,20
2017-04-13T05:03:57.005Z,20
2017-04-13T05:05:06.206Z,20
2017-04-13T05:06:15.336Z,20
2017-04-13T05:07:24.374Z,25
2017-04-13T05:08:33.324Z,25
2017-04-13T05:09:42.276Z,25
2017-04-13T05:10:51.474Z,30
2017-04-13T05:12:00.460Z,30
2017-04-13T05:13:09.496Z,40
2017-04-13T05:14:18.451Z,45
2017-04-13T05:15:27.401Z,45
2017-04-13T05:16:36.602Z,45
2017-04-13T05:17:45.550Z,40
2017-04-13T05:18:54.504Z,35
2017-04-13T05:20:03.451Z,35
2017-04-13T05:21:12.403Z,35
2017-04-13T05:22:21.605Z,35
2017-04-13T05:23:30.602Z,35
2017-04-13T05:24:39.548Z,35
2017-04-13T05:25:48.585Z,40
2017-04-13T05:26:57.624Z,35
2017-04-13T05:28:06.871Z,35
2017-04-13T05:29:15.820Z,40
2017-04-13T05:30:24.815Z,40
2017-04-13T05:31:33.766Z,40
2017-04-13T05:32:42.727Z,40
2017-04-13T05:33:51.923Z,40
2017-04-13T05:35:00.872Z,40
2017-04-13T05:36:09.820Z,40
2017-04-13T05:37:18.774Z,40
2017-04-13T05:38:27.725Z,40
2017-04-13T05:39:36.974Z,40
2017-04-13T05:40:46.013Z,45
2017-04-13T05:41:55.056Z,45
2017-04-13T05:43:04.102Z,45
2017-04-13T05:44:13.054Z,45
2017-04-13T05:45:22.343Z,45
2017-04-13T05:46:31.335Z,45
2017-04-13T05:47:40.284Z,45
2017-04-13T05:48:49.319Z,45
2017-04-13T05:49:58.273Z,50
2017-04-13T05:51:07.472Z,45
2017-04-13T05:52:16.474Z,50
2017-04-13T05:53:25.430Z,50
2017-04-13T05:54:34.379Z,50
2017-04-13T05:55:43.329Z,55
2017-04-13T05:56:52.538Z,55
2017-04-13T05:58:01.488Z,65
2017-04-13T05:59:10.440Z,75
2017-04-13T06:00:19.387Z,105
2017-04-13T06:01:28.341Z,90
2017-04-13T06:02:37.543Z,80
2017-04-13T06:03:46.494Z,60
2017-04-13T06:04:55.444Z,65
2017-04-13T06:06:04.558Z,85
2017-04-13T06:07:13.651Z,85
2017-04-13T06:08:22.856Z,75
2017-04-13T06:09:31.914Z,60
2017-04-13T06:10:40.949Z,55
2017-04-13T06:11:49.964Z,55
2017-04-13T06:12:58.966Z,55
2017-04-13T06:14:08.356Z,60
2017-04-13T06:15:17.303Z,60
2017-04-13T06:16:26.274Z,60
2017-04-13T06:17:35.224Z,65
2017-04-13T06:18:44.323Z,65
2017-04-13T06:19:53.908Z,60
2017-04-13T06:21:03.011Z,65
2017-04-13T06:22:12.044Z,60
2017-04-13T06:23:21.002Z,65
2017-04-13T06:24:30.153Z,70
2017-04-13T06:25:39.536Z,85
2017-04-13T06:26:48.786Z,65
2017-04-13T06:27:57.733Z,70
2017-04-13T06:29:06.690Z,70
2017-04-13T06:30:15.642Z,60
2017-04-13T06:31:24.929Z,70
2017-04-13T06:32:33.879Z,65
2017-04-13T06:33:42.828Z,70
2017-04-13T06:34:51.778Z,70
2017-04-13T06:36:00.815Z,75
2017-04-13T06:37:10.109Z,70
2017-04-13T06:38:19.062Z,75
2017-04-13T06:39:28.011Z,75
2017-04-13T06:40:36.960Z,80
2017-04-13T06:41:45.912Z,115
2017-04-13T06:42:55.118Z,155
2017-04-13T06:44:04.073Z,140
2017-04-13T06:45:13.023Z,110
2017-04-13T06:46:21.976Z,75
2017-04-13T06:47:30.936Z,70
2017-04-13T06:48:40.192Z,55
2017-04-13T06:49:49.142Z,60
2017-04-13T06:50:58.096Z,85
2017-04-13T06:52:07.050Z,60
2017-04-13T06:53:16.048Z,80
2017-04-13T06:54:25.247Z,80
2017-04-13T06:55:34.206Z,80
2017-04-13T06:56:43.148Z,70
2017-04-13T06:57:52.425Z,75
2017-04-13T06:59:01.372Z,80
2017-04-13T07:00:10.570Z,85
2017-04-13T07:01:19.520Z,105
2017-04-13T07:02:28.477Z,75
2017-04-13T07:03:37.429Z,90
2017-04-13T07:04:46.703Z,70
2017-04-13T07:05:55.956Z,125
2017-04-13T07:07:04.904Z,95
2017-04-13T07:08:13.855Z,55
2017-04-13T07:09:22.808Z,80
2017-04-13T07:10:31.760Z,110
2017-04-13T07:11:40.965Z,70
2017-04-13T07:12:49.918Z,150
2017-04-13T07:13:58.957Z,120
2017-04-13T07:15:08.009Z,140
2017-04-13T07:16:17.050Z,60
2017-04-13T07:17:26.307Z,95
2017-04-13T07:18:35.260Z,90
2017-04-13T07:19:44.209Z,115
2017-04-13T07:20:53.161Z,90
2017-04-13T07:22:02.115Z,100
2017-04-13T07:23:11.319Z,80
2017-04-13T07:24:20.267Z,130
2017-04-13T07:25:29.214Z,85
2017-04-13T07:26:38.181Z,115
2017-04-13T07:27:47.133Z,100
2017-04-13T07:28:56.394Z,135
2017-04-13T07:30:05.346Z,170
2017-04-13T07:31:14.391Z,150
2017-04-13T07:32:23.430Z,85
2017-04-13T07:33:32.386Z,165
2017-04-13T07:34:41.587Z,110
2017-04-13T07:35:50.631Z,170
2017-04-13T07:36:59.582Z,140
2017-04-13T07:38:08.538Z,105
2017-04-13T07:39:17.579Z,125
2017-04-13T07:40:26.833Z,140
2017-04-13T07:41:35.800Z,135
2017-04-13T07:42:44.752Z,155
2017-04-13T07:43:53.708Z,205
2017-04-13T07:45:02.753Z,135
2017-04-13T07:46:11.964Z,130
2017-04-13T07:47:21.106Z,90
2017-04-13T07:48:30.115Z,145
2017-04-13T07:49:39.155Z,105
2017-04-13T07:50:48.105Z,90
2017-04-13T07:51:57.315Z,95
2017-04-13T07:53:06.362Z,155
2017-04-13T07:54:15.319Z,190
2017-04-13T07:55:24.273Z,165
2017-04-13T07:56:33.228Z,95
2017-04-13T07:57:42.481Z,95
2017-04-13T07:58:51.468Z,100
2017-04-13T08:00:00.419Z,170
2017-04-13T08:01:09.383Z,115
2017-04-13T08:02:18.334Z,50
2017-04-13T08:03:27.543Z,55
2017-04-13T08:04:36.491Z,70
2017-04-13T08:05:45.449Z,115
2017-04-13T08:06:54.411Z,100
2017-04-13T08:08:03.369Z,90
2017-04-13T08:09:12.656Z,125
2017-04-13T08:10:21.609Z,165
2017-04-13T08:11:30.567Z,110
2017-04-13T08:12:39.517Z,165
2017-04-13T08:13:48.470Z,185
2017-04-13T08:14:57.678Z,195
2017-04-13T08:16:06.628Z,170
2017-04-13T08:17:15.588Z,140
2017-04-13T08:18:24.538Z,150
2017-04-13T08:19:33.583Z,190
2017-04-13T08:20:42.788Z,165
2017-04-13T08:21:51.742Z,125
2017-04-13T08:23:00.698Z,90
2017-04-13T08:24:09.651Z,110
2017-04-13T08:25:18.614Z,150
2017-04-13T08:26:27.816Z,120
2017-04-13T08:27:36.769Z,155
2017-04-13T08:28:46.049Z,195
2017-04-13T08:29:55.000Z,215
2017-04-13T08:31:03.955Z,235
2017-04-13T08:32:13.160Z,205
2017-04-13T08:33:22.111Z,205
2017-04-13T08:34:31.070Z,215
2017-04-13T08:35:40.029Z,210
2017-04-13T08:36:49.026Z,130
2017-04-13T08:37:58.230Z,170
2017-04-13T08:39:07.182Z,205
2017-04-13T08:40:16.223Z,220
2017-04-13T08:41:25.179Z,155
2017-04-13T08:42:34.130Z,105
2017-04-13T08:43:43.334Z,70
2017-04-13T08:44:52.333Z,75
2017-04-13T08:46:01.291Z,170
2017-04-13T08:47:10.245Z,195
2017-04-13T08:48:19.193Z,160
2017-04-13T08:49:28.398Z,125
2017-04-13T08:50:37.449Z,180
2017-04-13T08:51:46.406Z,145
2017-04-13T08:52:55.358Z,170
2017-04-13T08:54:04.309Z,180
2017-04-13T08:55:13.517Z,180
2017-04-13T08:56:22.472Z,135
2017-04-13T08:57:31.469Z,115
2017-04-13T08:58:40.425Z,125
2017-04-13T08:59:49.464Z,105
2017-04-13T09:00:58.670Z,195
2017-04-13T09:02:07.704Z,190
2017-04-13T09:03:16.656Z,195
2017-04-13T09:04:25.708Z,155
2017-04-13T09:05:34.811Z,205
2017-04-13T09:06:44.070Z,220
2017-04-13T09:07:53.018Z,230
2017-04-13T09:09:01.970Z,225
2017-04-13T09:10:10.930Z,145
2017-04-13T09:11:19.982Z,165
2017-04-13T09:12:29.185Z,140
2017-04-13T09:13:38.145Z,105
2017-04-13T09:14:47.101Z,95
2017-04-13T09:15:56.056Z,110
2017-04-13T09:17:05.008Z,75
2017-04-13T09:18:14.261Z,50
2017-04-13T09:19:23.215Z,60
2017-04-13T09:20:32.172Z,90
2017-04-13T09:21:41.137Z,125
2017-04-13T09:22:50.090Z,100
2017-04-13T09:23:59.046Z,190
2017-04-13T09:25:08.001Z,170
2017-04-13T09:26:16.957Z,155
2017-04-13T09:27:25.995Z,145
2017-04-13T09:28:35.249Z,105
2017-04-13T09:29:44.202Z,100
2017-04-13T09:30:53.162Z,90
2017-04-13T09:32:02.114Z,85
2017-04-13T09:33:11.064Z,105
2017-04-13T09:34:20.320Z,125
2017-04-13T09:35:29.277Z,150
2017-04-13T09:36:38.555Z,100
2017-04-13T09:37:47.513Z,100
2017-04-13T09:38:56.461Z,150
2017-04-13T09:40:05.665Z,200
2017-04-13T09:41:14.620Z,195
2017-04-13T09:42:23.576Z,225
2017-04-13T09:43:32.530Z,185
2017-04-13T09:44:41.490Z,245
2017-04-13T09:45:50.752Z,250
2017-04-13T09:46:59.703Z,285
2017-04-13T09:48:08.660Z,225
2017-04-13T09:49:17.701Z,205
2017-04-13T09:50:26.652Z,130
2017-04-13T09:51:35.864Z,120
2017-04-13T09:52:44.824Z,185
2017-04-13T09:53:53.786Z,205
2017-04-13T09:55:02.736Z,170
2017-04-13T09:56:11.691Z,170
2017-04-13T09:57:20.927Z,180
2017-04-13T09:58:29.890Z,175
2017-04-13T09:59:38.929Z,175
2017-04-13T10:00:47.882Z,150
2017-04-13T10:01:57.215Z,115
2017-04-13T10:03:06.540Z,145
2017-04-13T10:04:15.602Z,120
2017-04-13T10:05:24.564Z,85
2017-04-13T10:06:33.520Z,75
2017-04-13T10:07:42.472Z,85
2017-04-13T10:08:51.817Z,155
2017-04-13T10:10:00.766Z,190
2017-04-13T10:11:09.814Z,160
2017-04-13T10:12:18.847Z,135
2017-04-13T10:13:27.851Z,180
2017-04-13T10:14:37.240Z,175
2017-04-13T10:15:46.195Z,160
2017-04-13T10:16:55.234Z,205
2017-04-13T10:18:04.236Z,185
2017-04-13T10:19:13.238Z,130
2017-04-13T10:20:22.485Z,160
2017-04-13T10:21:31.530Z,190
2017-04-13T10:22:40.728Z,210
2017-04-13T10:23:49.725Z,210
2017-04-13T10:24:59.017Z,220
2017-04-13T10:26:08.278Z,275
2017-04-13T10:27:17.281Z,250
2017-04-13T10:28:26.367Z,225
2017-04-13T10:29:35.324Z,190
2017-04-13T10:30:44.376Z,160
2017-04-13T10:31:53.611Z,130
2017-04-13T10:33:02.568Z,125
2017-04-13T10:34:11.528Z,75
2017-04-13T10:35:20.488Z,75
2017-04-13T10:36:29.533Z,80
2017-04-13T10:37:38.792Z,60
2017-04-13T10:38:47.751Z,45
2017-04-13T10:39:56.705Z,40
2017-04-13T10:41:05.662Z,65
2017-04-13T10:42:14.621Z,80
2017-04-13T10:43:23.873Z,85
2017-04-13T10:44:32.829Z,80
2017-04-13T10:45:41.795Z,105
2017-04-13T10:46:50.751Z,110
2017-04-13T10:47:59.711Z,120
2017-04-13T10:49:08.916Z,145
2017-04-13T10:50:17.962Z,125
2017-04-13T10:51:26.928Z,100
2017-04-13T10:52:35.884Z,60
2017-04-13T10:53:44.836Z,45
2017-04-13T10:54:54.047Z,40
2017-04-13T10:56:03.005Z,55
2017-04-13T10:57:11.965Z,90
2017-04-13T10:58:20.917Z,120
2017-04-13T10:59:29.876Z,145
2017-04-13T11:00:39.131Z,170
2017-04-13T11:01:48.085Z,175
2017-04-13T11:02:57.087Z,170
2017-04-13T11:04:06.038Z,210
2017-04-13T11:05:14.992Z,185
2017-04-13T11:06:24.205Z,200
2017-04-13T11:07:33.166Z,185
2017-04-13T11:08:42.120Z,200
2017-04-13T11:09:51.074Z,215
2017-04-13T11:11:00.033Z,215
2017-04-13T11:12:09.245Z,180
2017-04-13T11:13:18.285Z,165
2017-04-13T11:14:27.573Z,200
2017-04-13T11:15:36.528Z,210
2017-04-13T11:16:45.490Z,205
2017-04-13T11:17:54.744Z,230
2017-04-13T11:19:03.701Z,255
2017-04-13T11:20:12.743Z,255
2017-04-13T11:21:21.704Z,260
2017-04-13T11:22:30.667Z,255
2017-04-13T11:23:39.963Z,245
2017-04-13T11:24:49.099Z,240
2017-04-13T11:25:58.049Z,230
2017-04-13T11:27:07.007Z,230
2017-04-13T11:28:15.962Z,235
2017-04-13T11:29:25.172Z,225
2017-04-13T11:30:34.126Z,220
2017-04-13T11:31:43.170Z,225
2017-04-13T11:32:52.129Z,230
2017-04-13T11:34:01.086Z,230
2017-04-13T11:35:10.299Z,245
2017-04-13T11:36:19.263Z,255
2017-04-13T11:37:28.221Z,230
2017-04-13T11:38:37.178Z,190
2017-04-13T11:39:46.136Z,160
2017-04-13T11:40:55.392Z,170
2017-04-13T11:42:04.352Z,160
2017-04-13T11:43:13.309Z,170
2017-04-13T11:44:22.267Z,110
2017-04-13T11:45:31.227Z,100
2017-04-13T11:46:40.527Z,85
2017-04-13T11:47:49.491Z,90
2017-04-13T11:48:58.548Z,80
2017-04-13T11:50:07.509Z,95
2017-04-13T11:51:16.554Z,95
2017-04-13T11:52:25.770Z,85
2017-04-13T11:53:34.724Z,80
2017-04-13T11:54:43.767Z,90
2017-04-13T11:55:52.720Z,90
2017-04-13T11:57:01.679Z,75
2017-04-13T11:58:10.890Z,90
2017-04-13T11:59:20.168Z,60
2017-04-13T12:00:29.121Z,35
2017-04-13T12:01:38.078Z,30
2017-04-13T12:02:47.045Z,35
2017-04-13T12:03:56.251Z,45
2017-04-13T12:05:05.534Z,60
2017-04-13T12:06:14.512Z,80
2017-04-13T12:07:23.467Z,80
2017-04-13T12:08:32.427Z,55
2017-04-13T12:09:41.680Z,40
2017-04-13T12:10:50.637Z,25
2017-04-13T12:11:59.594Z,30
2017-04-13T12:13:08.546Z,40
2017-04-13T12:14:17.498Z,55
2017-04-13T12:15:26.705Z,85
2017-04-13T12:16:35.676Z,95
2017-04-13T12:17:44.625Z,105
2017-04-13T12:18:53.582Z,130
2017-04-13T12:20:02.546Z,160
2017-04-13T12:21:11.755Z,175
2017-04-13T12:22:20.717Z,200
2017-04-13T12:23:30.016Z,210
2017-04-13T12:24:39.146Z,170
2017-04-13T12:25:48.192Z,150
2017-04-13T12:26:57.446Z,150
2017-04-13T12:28:06.446Z,125
2017-04-13T12:29:15.489Z,120
2017-04-13T12:30:24.443Z,140
2017-04-13T12:31:33.401Z,145
2017-04-13T12:32:42.608Z,145
2017-04-13T12:33:51.566Z,150
2017-04-13T12:35:00.524Z,160
2017-04-13T12:36:09.477Z,160
2017-04-13T12:37:18.434Z,145
2017-04-13T12:38:27.645Z,165
2017-04-13T12:39:36.605Z,190
2017-04-13T12:40:45.564Z,180
2017-04-13T12:41:54.521Z,165
2017-04-13T12:43:03.479Z,200
2017-04-13T12:44:12.684Z,195
2017-04-13T12:45:21.732Z,145
2017-04-13T12:46:30.776Z,120
2017-04-13T12:47:39.730Z,110
2017-04-13T12:48:48.772Z,115
2017-04-13T12:49:57.973Z,130
2017-04-13T12:51:07.016Z,120
2017-04-13T12:52:15.968Z,85
2017-04-13T12:53:24.929Z,110
2017-04-13T12:54:33.892Z,95
2017-04-13T12:55:43.097Z,100
2017-04-13T12:56:52.050Z,70
2017-04-13T12:58:01.006Z,85
2017-04-13T12:59:09.959Z,70
2017-04-13T13:00:19.087Z,90
2017-04-13T13:01:28.346Z,90
2017-04-13T13:02:37.403Z,85
2017-04-13T13:03:46.358Z,85
2017-04-13T13:04:55.315Z,85
2017-04-13T13:06:04.268Z,85
2017-04-13T13:07:13.521Z,85
2017-04-13T13:08:22.477Z,90
2017-04-13T13:09:31.428Z,90
2017-04-13T13:10:40.723Z,90
2017-04-13T13:11:49.677Z,85
2017-04-13T13:12:58.932Z,85
2017-04-13T13:14:07.885Z,90
2017-04-13T13:15:16.844Z,90
2017-04-13T13:16:25.802Z,90
2017-04-13T13:17:34.773Z,90
2017-04-13T13:18:44.027Z,90
2017-04-13T13:19:52.983Z,90
2017-04-13T13:21:01.939Z,90
2017-04-13T13:22:10.892Z,90
2017-04-13T13:23:19.842Z,90
2017-04-13T13:24:29.049Z,90
2017-04-13T13:25:38.008Z,95
2017-04-13T13:26:46.963Z,100
2017-04-13T13:27:55.923Z,115
2017-04-13T13:29:04.876Z,115
2017-04-13T13:30:14.098Z,110
2017-04-13T13:31:23.227Z,110
2017-04-13T13:32:32.181Z,70
2017-04-13T13:33:41.222Z,95
2017-04-13T13:34:50.175Z,115
2017-04-13T13:35:59.384Z,120
2017-04-13T13:37:08.382Z,100
2017-04-13T13:38:17.343Z,80
2017-04-13T13:39:26.303Z,60
2017-04-13T13:40:35.259Z,45
2017-04-13T13:41:44.465Z,40
2017-04-13T13:42:53.419Z,50
2017-04-13T13:44:02.707Z,70
2017-04-13T13:45:11.664Z,110
2017-04-13T13:46:20.619Z,130
2017-04-13T13:47:29.830Z,155
2017-04-13T13:48:38.786Z,190
2017-04-13T13:49:47.742Z,170
2017-04-13T13:50:56.694Z,175
2017-04-13T13:52:05.647Z,110
2017-04-13T13:53:14.853Z,140
2017-04-13T13:54:23.808Z,105
2017-04-13T13:55:32.765Z,140
2017-04-13T13:56:41.719Z,95
2017-04-13T13:57:50.674Z,120
2017-04-13T13:58:59.877Z,90
2017-04-13T14:00:08.830Z,60
2017-04-13T14:01:17.792Z,60
2017-04-13T14:02:26.750Z,90
2017-04-13T14:03:35.706Z,130
2017-04-13T14:04:44.925Z,170
2017-04-13T14:05:53.879Z,115
2017-04-13T14:07:02.837Z,135
2017-04-13T14:08:11.791Z,100
2017-04-13T14:09:20.742Z,150
2017-04-13T14:10:30.001Z,140
2017-04-13T14:11:38.968Z,85
2017-04-13T14:12:47.922Z,95
2017-04-13T14:13:56.872Z,150
2017-04-13T14:15:05.836Z,150
2017-04-13T14:16:15.045Z,95
2017-04-13T14:17:24.002Z,160
2017-04-13T14:18:32.957Z,135
2017-04-13T14:19:41.911Z,110
2017-04-13T14:20:50.860Z,160
2017-04-13T14:22:00.066Z,100
2017-04-13T14:23:09.021Z,95
2017-04-13T14:24:17.975Z,80
2017-04-13T14:25:26.933Z,65
2017-04-13T14:26:35.892Z,105
2017-04-13T14:27:45.101Z,100
2017-04-13T14:28:54.140Z,100
2017-04-13T14:30:03.095Z,50
2017-04-13T14:31:12.056Z,45
2017-04-13T14:32:21.020Z,55
2017-04-13T14:33:30.237Z,70
2017-04-13T14:34:39.193Z,70
2017-04-13T14:35:48.234Z,60
2017-04-13T14:36:57.193Z,65
2017-04-13T14:38:06.147Z,50
2017-04-13T14:39:15.359Z,40
2017-04-13T14:40:24.639Z,45
2017-04-13T14:41:33.598Z,55
2017-04-13T14:42:42.885Z,65
2017-04-13T14:43:51.839Z,70
2017-04-13T14:45:01.037Z,85
2017-04-13T14:46:09.996Z,80
2017-04-13T14:47:18.944Z,130
2017-04-13T14:48:27.897Z,165
2017-04-13T14:49:36.852Z,165
2017-04-13T14:50:46.060Z,140
2017-04-13T14:51:55.105Z,115
2017-04-13T14:53:04.057Z,100
2017-04-13T14:54:13.012Z,85
2017-04-13T14:55:21.971Z,85
2017-04-13T14:56:31.225Z,85
2017-04-13T14:57:40.267Z,85
2017-04-13T14:58:49.221Z,85
2017-04-13T14:59:58.230Z,85
2017-04-13T15:01:07.180Z,85
2017-04-13T15:02:16.386Z,85
2017-04-13T15:03:25.341Z,50
2017-04-13T15:04:34.302Z,80
2017-04-13T15:05:43.264Z,85
2017-04-13T15:06:52.215Z,85
2017-04-13T15:08:01.420Z,85
2017-04-13T15:09:10.504Z,90
2017-04-13T15:10:19.453Z,155
2017-04-13T15:11:28.412Z,190
2017-04-13T15:12:37.371Z,175
2017-04-13T15:13:46.580Z,110
2017-04-13T15:14:55.626Z,85
2017-04-13T15:16:04.581Z,85
2017-04-13T15:17:13.624Z,60
2017-04-13T15:18:22.582Z,70
2017-04-13T15:19:31.863Z,80
2017-04-13T15:20:40.818Z,85
2017-04-13T15:21:49.775Z,90
2017-04-13T15:22:58.822Z,120
2017-04-13T15:24:07.776Z,80
2017-04-13T15:25:17.339Z,75
2017-04-13T15:26:26.331Z,85
2017-04-13T15:27:35.290Z,90
2017-04-13T15:28:44.332Z,85
2017-04-13T15:29:53.293Z,75
2017-04-13T15:31:02.548Z,55
2017-04-13T15:32:11.502Z,45
2017-04-13T15:33:20.461Z,40
2017-04-13T15:34:29.415Z,40
2017-04-13T15:35:38.375Z,45
2017-04-13T15:36:47.582Z,60
2017-04-13T15:37:56.541Z,75
2017-04-13T15:39:05.584Z,80
2017-04-13T15:40:14.542Z,75
2017-04-13T15:41:23.498Z,85
2017-04-13T15:42:32.701Z,120
2017-04-13T15:43:41.659Z,120
2017-04-13T15:44:50.613Z,85
2017-04-13T15:45:59.651Z,60
2017-04-13T15:47:08.620Z,50
2017-04-13T15:48:17.821Z,50
2017-04-13T15:49:26.821Z,55
2017-04-13T15:50:35.786Z,65
2017-04-13T15:51:45.071Z,80
2017-04-13T15:52:54.025Z,85
2017-04-13T15:54:03.284Z,85
2017-04-13T15:55:12.235Z,80
2017-04-13T15:56:21.190Z,75
2017-04-13T15:57:30.150Z,65
2017-04-13T15:58:39.187Z,65
2017-04-13T15:59:48.438Z,65
2017-04-13T16:00:57.396Z,60
2017-04-13T16:02:06.365Z,50
2017-04-13T16:03:15.320Z,45
2017-04-13T16:04:24.271Z,50
2017-04-13T16:05:33.532Z,55
2017-04-13T16:06:42.608Z,75
2017-04-13T16:07:51.569Z,75
2017-04-13T16:09:00.528Z,70
2017-04-13T16:10:09.483Z,70
2017-04-13T16:11:18.736Z,65
2017-04-13T16:12:27.694Z,65
2017-04-13T16:13:36.731Z,55
2017-04-13T16:14:45.776Z,50
2017-04-13T16:15:54.729Z,45
2017-04-13T16:17:03.936Z,45
2017-04-13T16:18:12.897Z,50
2017-04-13T16:19:21.850Z,50
2017-04-13T16:20:30.804Z,50
2017-04-13T16:21:39.760Z,50